createdAt,value
2023-01-03T00:00:09.748Z,18.59
2023-01-03T00:01:09.673Z,18.61
2023-01-03T00:02:09.688Z,18.57
2023-01-03T00:03:09.658Z,18.68
2023-01-03T00:04:09.769Z,18.50
2023-01-03T00:05:09.650Z,18.65
2023-01-03T00:06:09.617Z,18.68
2023-01-03T00:07:09.729Z,18.59
2023-01-03T00:08:09.595Z,18.62
2023-01-03T00:09:09.588Z,18.58
2023-01-03T00:10:09.615Z,18.68
2023-01-03T00:11:09.562Z,18.58
2023-01-03T00:12:09.556Z,18.58
2023-01-03T00:13:09.539Z,18.62
2023-01-03T00:14:09.528Z,18.61
2023-01-03T00:15:09.520Z,18.59
2023-01-03T00:16:09.511Z,18.65
2023-01-03T00:17:09.648Z,18.58
2023-01-03T00:18:09.484Z,18.61
2023-01-03T00:19:09.475Z,18.61
2023-01-03T00:20:09.474Z,18.58
2023-01-03T00:21:09.455Z,18.68
2023-01-03T00:22:09.956Z,18.59
2023-01-03T00:23:09.444Z,18.50
2023-01-03T00:24:09.415Z,18.59
2023-01-03T00:25:09.405Z,18.59
2023-01-03T00:26:09.395Z,18.61
2023-01-03T00:27:09.381Z,18.59
2023-01-03T00:28:09.418Z,18.67
2023-01-03T00:29:09.368Z,18.62
2023-01-03T00:30:09.376Z,18.61
2023-01-03T00:31:09.396Z,18.61
2023-01-03T00:32:09.328Z,18.61
2023-01-03T00:33:09.315Z,18.50
2023-01-03T00:34:09.312Z,18.59
2023-01-03T00:35:09.292Z,18.55
2023-01-03T00:36:09.290Z,18.62
2023-01-03T00:37:09.274Z,18.59
2023-01-03T00:38:09.258Z,18.59
2023-01-03T00:39:09.265Z,18.59
2023-01-03T00:40:09.259Z,18.61
2023-01-03T00:41:09.225Z,18.58
2023-01-03T00:42:09.216Z,18.57
2023-01-03T00:43:09.203Z,18.61
2023-01-03T00:44:09.208Z,18.61
2023-01-03T00:45:10.697Z,18.52
2023-01-03T00:46:09.222Z,18.64
2023-01-03T00:47:09.160Z,18.58
2023-01-03T00:48:09.147Z,18.58
2023-01-03T00:49:09.135Z,18.57
2023-01-03T00:50:09.123Z,18.50
2023-01-03T00:51:09.113Z,18.54
2023-01-03T00:52:09.108Z,18.58
2023-01-03T00:53:09.100Z,18.57
2023-01-03T00:54:09.095Z,18.44
2023-01-03T00:55:09.085Z,18.64
2023-01-03T00:56:09.056Z,18.44
2023-01-03T00:57:09.046Z,18.55
2023-01-03T00:58:09.042Z,18.54
2023-01-03T00:59:09.029Z,18.61
2023-01-03T01:00:09.013Z,18.54
2023-01-03T01:01:09.112Z,18.50
2023-01-03T01:02:09.309Z,18.54
2023-01-03T01:03:09.166Z,18.62
2023-01-03T01:04:08.997Z,18.50
2023-01-03T01:05:08.969Z,18.58
2023-01-03T01:06:08.954Z,18.57
2023-01-03T01:07:08.936Z,18.49
2023-01-03T01:08:08.921Z,18.52
2023-01-03T01:09:08.911Z,18.59
2023-01-03T01:10:08.909Z,18.55
2023-01-03T01:11:09.036Z,18.47
2023-01-03T01:12:08.881Z,18.47
2023-01-03T01:13:08.866Z,18.55
2023-01-03T01:14:08.855Z,18.49
2023-01-03T01:15:08.852Z,18.57
2023-01-03T01:16:08.931Z,18.44
2023-01-03T01:17:08.822Z,18.49
2023-01-03T01:18:08.810Z,18.46
2023-01-03T01:19:08.799Z,18.52
2023-01-03T01:20:08.791Z,18.47
2023-01-03T01:21:08.779Z,18.49
2023-01-03T01:22:08.797Z,18.49
2023-01-03T01:23:08.753Z,18.54
2023-01-03T01:24:11.579Z,18.46
2023-01-03T01:25:09.731Z,18.52
2023-01-03T01:26:08.723Z,18.47
2023-01-03T01:27:08.736Z,18.47
2023-01-03T01:28:08.734Z,18.50
2023-01-03T01:29:08.686Z,18.49
2023-01-03T01:30:08.678Z,18.49
2023-01-03T01:31:08.716Z,18.47
2023-01-03T01:32:08.652Z,18.43
2023-01-03T01:33:08.645Z,18.59
2023-01-03T01:34:08.644Z,18.44
2023-01-03T01:35:08.618Z,18.46
2023-01-03T01:36:08.610Z,18.47
2023-01-03T01:37:08.612Z,18.52
2023-01-03T01:38:08.585Z,18.50
2023-01-03T01:39:08.582Z,18.47
2023-01-03T01:40:08.600Z,18.44
2023-01-03T01:41:08.553Z,18.49
2023-01-03T01:42:08.543Z,18.52
2023-01-03T01:43:08.546Z,18.49
2023-01-03T01:44:08.517Z,18.52
2023-01-03T01:45:08.507Z,18.52
2023-01-03T01:46:08.539Z,18.50
2023-01-03T01:47:08.485Z,18.54
2023-01-03T01:48:08.482Z,18.50
2023-01-03T01:49:08.461Z,18.49
2023-01-03T01:50:08.455Z,18.55
2023-01-03T01:51:08.438Z,18.52
2023-01-03T01:52:08.433Z,18.52
2023-01-03T01:53:08.420Z,18.59
2023-01-03T01:54:08.404Z,18.57
2023-01-03T01:55:08.405Z,18.49
2023-01-03T01:56:08.384Z,18.52
2023-01-03T01:57:08.374Z,18.54
2023-01-03T01:58:08.377Z,18.52
2023-01-03T01:59:08.369Z,18.61
2023-01-03T02:00:08.338Z,18.52
2023-01-03T02:01:08.396Z,18.67
2023-01-03T02:02:08.412Z,18.57
2023-01-03T02:03:08.476Z,18.64
2023-01-03T02:04:08.303Z,18.58
2023-01-03T02:05:08.282Z,18.58
2023-01-03T02:06:08.273Z,18.57
2023-01-03T02:07:08.287Z,18.58
2023-01-03T02:08:08.252Z,18.55
2023-01-03T02:09:08.237Z,18.52
2023-01-03T02:10:08.249Z,18.52
2023-01-03T02:11:08.217Z,18.61
2023-01-03T02:12:08.204Z,18.61
2023-01-03T02:13:08.220Z,18.65
2023-01-03T02:14:08.189Z,18.61
2023-01-03T02:15:08.186Z,18.64
2023-01-03T02:16:08.205Z,18.58
2023-01-03T02:17:08.146Z,18.61
2023-01-03T02:18:08.136Z,18.70
2023-01-03T02:19:08.128Z,18.64
2023-01-03T02:20:08.115Z,18.61
2023-01-03T02:21:08.101Z,18.52
2023-01-03T02:22:08.097Z,18.57
2023-01-03T02:23:08.080Z,18.59
2023-01-03T02:24:08.071Z,18.62
2023-01-03T02:25:08.063Z,18.65
2023-01-03T02:26:08.046Z,18.62
2023-01-03T02:27:08.035Z,18.62
2023-01-03T02:28:08.030Z,18.64
2023-01-03T02:29:08.015Z,18.57
2023-01-03T02:30:08.001Z,18.61
2023-01-03T02:31:08.067Z,18.67
2023-01-03T02:32:07.978Z,18.58
2023-01-03T02:33:07.972Z,18.68
2023-01-03T02:34:07.996Z,18.55
2023-01-03T02:35:07.951Z,18.58
2023-01-03T02:36:07.934Z,18.59
2023-01-03T02:37:07.943Z,18.64
2023-01-03T02:38:07.911Z,18.62
2023-01-03T02:39:07.912Z,18.64
2023-01-03T02:40:07.909Z,18.65
2023-01-03T02:41:07.878Z,18.67
2023-01-03T02:42:07.868Z,18.58
2023-01-03T02:43:07.863Z,18.64
2023-01-03T02:44:07.848Z,18.64
2023-01-03T02:45:07.837Z,18.65
2023-01-03T02:46:07.956Z,18.67
2023-01-03T02:47:07.926Z,18.62
2023-01-03T02:48:07.801Z,18.64
2023-01-03T02:49:07.789Z,18.68
2023-01-03T02:50:07.777Z,18.61
2023-01-03T02:51:07.767Z,18.68
2023-01-03T02:52:07.767Z,18.68
2023-01-03T02:53:07.754Z,18.67
2023-01-03T02:54:07.751Z,18.62
2023-01-03T02:55:07.731Z,18.62
2023-01-03T02:56:07.709Z,18.67
2023-01-03T02:57:07.700Z,18.65
2023-01-03T02:58:07.710Z,18.64
2023-01-03T02:59:07.680Z,18.61
2023-01-03T03:00:07.666Z,18.61
2023-01-03T03:01:07.718Z,18.70
2023-01-03T03:02:07.727Z,18.61
2023-01-03T03:03:07.725Z,18.70
2023-01-03T03:04:07.627Z,18.64
2023-01-03T03:05:07.608Z,18.74
2023-01-03T03:06:07.599Z,18.68
2023-01-03T03:07:07.587Z,18.72
2023-01-03T03:08:07.588Z,18.65
2023-01-03T03:09:07.564Z,18.76
2023-01-03T03:10:07.585Z,18.65
2023-01-03T03:11:07.541Z,18.65
2023-01-03T03:12:07.531Z,18.72
2023-01-03T03:13:07.524Z,18.74
2023-01-03T03:14:07.510Z,18.65
2023-01-03T03:15:07.499Z,18.68
2023-01-03T03:16:07.586Z,18.74
2023-01-03T03:17:07.477Z,18.72
2023-01-03T03:18:07.465Z,18.73
2023-01-03T03:19:07.505Z,18.72
2023-01-03T03:20:07.440Z,18.73
2023-01-03T03:21:07.438Z,18.70
2023-01-03T03:22:07.448Z,18.72
2023-01-03T03:23:07.419Z,18.74
2023-01-03T03:24:07.404Z,18.72
2023-01-03T03:25:07.390Z,18.70
2023-01-03T03:26:07.374Z,18.68
2023-01-03T03:27:07.363Z,18.70
2023-01-03T03:28:07.356Z,18.72
2023-01-03T03:29:07.350Z,18.74
2023-01-03T03:30:07.331Z,18.72
2023-01-03T03:31:07.372Z,18.73
2023-01-03T03:32:07.308Z,18.79
2023-01-03T03:33:07.305Z,18.76
2023-01-03T03:34:07.328Z,18.72
2023-01-03T03:35:07.291Z,18.79
2023-01-03T03:36:07.261Z,18.73
2023-01-03T03:37:07.251Z,18.74
2023-01-03T03:38:07.242Z,18.72
2023-01-03T03:39:07.230Z,18.70
2023-01-03T03:40:07.234Z,18.70
2023-01-03T03:41:07.209Z,18.77
2023-01-03T03:42:07.195Z,18.74
2023-01-03T03:43:07.193Z,18.77
2023-01-03T03:44:07.174Z,18.72
2023-01-03T03:45:07.163Z,18.79
2023-01-03T03:46:07.172Z,18.72
2023-01-03T03:47:07.200Z,18.67
2023-01-03T03:48:07.140Z,18.70
2023-01-03T03:49:07.133Z,18.68
2023-01-03T03:50:07.105Z,18.70
2023-01-03T03:51:07.113Z,18.73
2023-01-03T03:52:07.131Z,18.79
2023-01-03T03:53:07.079Z,18.79
2023-01-03T03:54:07.060Z,18.77
2023-01-03T03:55:07.051Z,18.77
2023-01-03T03:56:07.039Z,18.72
2023-01-03T03:57:07.041Z,18.76
2023-01-03T03:58:07.021Z,18.79
2023-01-03T03:59:07.046Z,18.77
2023-01-03T04:00:06.998Z,18.79
2023-01-03T04:01:07.045Z,18.77
2023-01-03T04:02:07.136Z,18.77
2023-01-03T04:03:07.094Z,18.76
2023-01-03T04:04:07.028Z,18.83
2023-01-03T04:05:06.943Z,18.70
2023-01-03T04:06:06.930Z,18.77
2023-01-03T04:07:07.028Z,18.68
2023-01-03T04:08:06.904Z,18.76
2023-01-03T04:09:06.893Z,18.76
2023-01-03T04:10:06.888Z,18.72
2023-01-03T04:11:06.869Z,18.76
2023-01-03T04:12:06.857Z,18.72
2023-01-03T04:13:06.851Z,18.74
2023-01-03T04:14:06.835Z,18.70
2023-01-03T04:15:06.848Z,18.74
2023-01-03T04:16:06.978Z,18.77
2023-01-03T04:17:06.819Z,18.74
2023-01-03T04:18:06.789Z,18.74
2023-01-03T04:19:06.783Z,18.70
2023-01-03T04:20:06.770Z,18.76
2023-01-03T04:21:06.769Z,18.70
2023-01-03T04:22:06.756Z,18.72
2023-01-03T04:23:06.845Z,18.76
2023-01-03T04:24:06.725Z,18.74
2023-01-03T04:25:06.713Z,18.73
2023-01-03T04:26:06.709Z,18.82
2023-01-03T04:27:06.696Z,18.74
2023-01-03T04:28:06.711Z,18.79
2023-01-03T04:29:06.671Z,18.74
2023-01-03T04:30:06.658Z,18.73
2023-01-03T04:31:06.645Z,18.74
2023-01-03T04:32:06.716Z,18.74
2023-01-03T04:33:06.636Z,18.77
2023-01-03T04:34:06.650Z,18.80
2023-01-03T04:35:06.610Z,18.74
2023-01-03T04:36:06.590Z,18.73
2023-01-03T04:37:06.579Z,18.74
2023-01-03T04:38:06.573Z,18.74
2023-01-03T04:39:06.588Z,18.74
2023-01-03T04:40:06.572Z,18.80
2023-01-03T04:41:06.539Z,18.82
2023-01-03T04:42:06.530Z,18.77
2023-01-03T04:43:06.524Z,18.82
2023-01-03T04:44:06.500Z,18.74
2023-01-03T04:45:06.494Z,18.74
2023-01-03T04:46:06.554Z,18.74
2023-01-03T04:47:06.474Z,18.74
2023-01-03T04:48:06.465Z,18.80
2023-01-03T04:49:06.457Z,18.73
2023-01-03T04:50:06.459Z,18.77
2023-01-03T04:51:06.430Z,18.77
2023-01-03T04:52:06.431Z,18.80
2023-01-03T04:53:06.410Z,18.77
2023-01-03T04:54:06.401Z,18.73
2023-01-03T04:55:06.399Z,18.80
2023-01-03T04:56:06.374Z,18.74
2023-01-03T04:57:06.359Z,18.74
2023-01-03T04:58:06.368Z,18.76
2023-01-03T04:59:06.338Z,18.80
2023-01-03T05:00:06.348Z,18.77
2023-01-03T05:01:06.451Z,18.74
2023-01-03T05:02:06.457Z,18.80
2023-01-03T05:03:06.286Z,18.82
2023-01-03T05:04:06.429Z,18.79
2023-01-03T05:05:06.275Z,18.79
2023-01-03T05:06:06.256Z,18.74
2023-01-03T05:07:06.241Z,18.74
2023-01-03T05:08:06.238Z,18.79
2023-01-03T05:09:06.222Z,18.77
2023-01-03T05:10:06.243Z,18.79
2023-01-03T05:11:06.222Z,18.80
2023-01-03T05:12:06.192Z,18.79
2023-01-03T05:13:06.180Z,18.79
2023-01-03T05:14:12.458Z,18.74
2023-01-03T05:15:07.156Z,18.76
2023-01-03T05:16:06.196Z,18.80
2023-01-03T05:17:06.187Z,18.76
2023-01-03T05:18:06.118Z,18.76
2023-01-03T05:19:06.107Z,18.82
2023-01-03T05:20:06.099Z,18.79
2023-01-03T05:21:06.091Z,18.79
2023-01-03T05:22:06.080Z,18.72
2023-01-03T05:23:06.071Z,18.76
2023-01-03T05:24:06.056Z,18.77
2023-01-03T05:25:06.048Z,18.77
2023-01-03T05:26:06.028Z,18.77
2023-01-03T05:27:06.055Z,18.77
2023-01-03T05:28:06.008Z,18.74
2023-01-03T05:29:05.998Z,18.76
2023-01-03T05:30:06.003Z,18.79
2023-01-03T05:31:05.973Z,18.77
2023-01-03T05:32:06.047Z,18.72
2023-01-03T05:33:05.957Z,18.83
2023-01-03T05:34:05.947Z,18.77
2023-01-03T05:35:05.934Z,18.76
2023-01-03T05:36:05.917Z,18.83
2023-01-03T05:37:05.906Z,18.77
2023-01-03T05:38:05.894Z,18.77
2023-01-03T05:39:05.916Z,18.79
2023-01-03T05:40:05.872Z,18.80
2023-01-03T05:41:05.875Z,18.80
2023-01-03T05:42:05.869Z,18.73
2023-01-03T05:43:05.987Z,18.82
2023-01-03T05:44:05.846Z,18.76
2023-01-03T05:45:05.844Z,18.80
2023-01-03T05:46:05.988Z,18.80
2023-01-03T05:47:05.792Z,18.73
2023-01-03T05:48:05.785Z,18.79
2023-01-03T05:49:05.781Z,18.76
2023-01-03T05:50:05.758Z,18.82
2023-01-03T05:51:05.776Z,18.79
2023-01-03T05:52:05.735Z,18.74
2023-01-03T05:53:05.729Z,18.79
2023-01-03T05:54:05.725Z,18.77
2023-01-03T05:55:05.712Z,18.79
2023-01-03T05:56:05.694Z,18.77
2023-01-03T05:57:05.704Z,18.80
2023-01-03T05:58:05.669Z,18.77
2023-01-03T05:59:05.685Z,18.80
2023-01-03T06:00:05.647Z,18.84
2023-01-03T06:01:05.748Z,18.79
2023-01-03T06:02:05.781Z,18.82
2023-01-03T06:03:05.718Z,18.79
2023-01-03T06:04:05.657Z,18.76
2023-01-03T06:05:05.597Z,18.80
2023-01-03T06:06:05.580Z,18.74
2023-01-03T06:07:05.572Z,18.79
2023-01-03T06:08:05.558Z,18.77
2023-01-03T06:09:05.554Z,18.80
2023-01-03T06:10:05.539Z,18.80
2023-01-03T06:11:05.526Z,18.79
2023-01-03T06:12:05.513Z,18.80
2023-01-03T06:13:05.502Z,18.80
2023-01-03T06:14:05.490Z,18.84
2023-01-03T06:15:05.526Z,18.80
2023-01-03T06:16:05.471Z,18.80
2023-01-03T06:17:05.573Z,18.76
2023-01-03T06:18:05.442Z,18.74
2023-01-03T06:19:05.447Z,18.79
2023-01-03T06:20:05.424Z,18.77
2023-01-03T06:21:05.419Z,18.73
2023-01-03T06:22:10.522Z,18.79
2023-01-03T06:23:06.395Z,18.82
2023-01-03T06:24:05.423Z,18.80
2023-01-03T06:25:05.367Z,18.82
2023-01-03T06:26:05.360Z,18.77
2023-01-03T06:27:05.363Z,18.77
2023-01-03T06:28:05.341Z,18.84
2023-01-03T06:29:05.328Z,18.76
2023-01-03T06:30:05.316Z,18.74
2023-01-03T06:31:05.404Z,18.74
2023-01-03T06:32:09.486Z,18.79
2023-01-03T06:33:05.295Z,18.77
2023-01-03T06:34:05.267Z,18.74
2023-01-03T06:35:05.254Z,18.79
2023-01-03T06:36:05.244Z,18.79
2023-01-03T06:37:05.232Z,18.77
2023-01-03T06:38:05.223Z,18.80
2023-01-03T06:39:05.227Z,18.74
2023-01-03T06:40:05.197Z,18.79
2023-01-03T06:41:05.190Z,18.76
2023-01-03T06:42:05.178Z,18.80
2023-01-03T06:43:05.169Z,18.82
2023-01-03T06:44:05.153Z,18.79
2023-01-03T06:45:05.194Z,18.80
2023-01-03T06:46:05.190Z,18.80
2023-01-03T06:47:05.134Z,18.82
2023-01-03T06:48:05.109Z,18.77
2023-01-03T06:49:05.096Z,18.80
2023-01-03T06:50:05.090Z,18.80
2023-01-03T06:51:05.081Z,18.73
2023-01-03T06:52:05.070Z,18.79
2023-01-03T06:53:05.064Z,18.77
2023-01-03T06:54:05.051Z,18.77
2023-01-03T06:55:05.042Z,18.79
2023-01-03T06:56:05.018Z,18.76
2023-01-03T06:57:05.025Z,18.77
2023-01-03T06:58:05.002Z,18.82
2023-01-03T06:59:04.988Z,18.76
2023-01-03T07:00:04.973Z,18.76
2023-01-03T07:01:05.072Z,18.74
2023-01-03T07:02:05.091Z,18.77
2023-01-03T07:03:10.955Z,18.77
2023-01-03T07:04:06.003Z,18.77
2023-01-03T07:05:05.056Z,18.76
2023-01-03T07:06:04.906Z,18.80
2023-01-03T07:07:04.899Z,18.72
2023-01-03T07:08:04.883Z,18.83
2023-01-03T07:09:04.884Z,18.79
2023-01-03T07:10:04.862Z,18.82
2023-01-03T07:11:04.850Z,18.80
2023-01-03T07:12:04.843Z,18.77
2023-01-03T07:13:04.829Z,18.76
2023-01-03T07:14:04.818Z,18.79
2023-01-03T07:15:04.813Z,18.82
2023-01-03T07:16:04.834Z,18.82
2023-01-03T07:17:04.788Z,18.80
2023-01-03T07:18:04.776Z,18.74
2023-01-03T07:19:04.785Z,18.77
2023-01-03T07:20:04.753Z,18.79
2023-01-03T07:21:04.745Z,18.80
2023-01-03T07:22:04.729Z,18.80
2023-01-03T07:23:04.716Z,18.77
2023-01-03T07:24:04.711Z,18.77
2023-01-03T07:25:04.694Z,18.74
2023-01-03T07:26:04.692Z,18.74
2023-01-03T07:27:04.688Z,18.77
2023-01-03T07:28:08.121Z,18.77
2023-01-03T07:29:04.652Z,18.73
2023-01-03T07:30:04.640Z,18.77
2023-01-03T07:31:04.694Z,18.80
2023-01-03T07:32:04.614Z,18.77
2023-01-03T07:33:04.630Z,18.77
2023-01-03T07:34:04.627Z,18.79
2023-01-03T07:35:04.597Z,18.76
2023-01-03T07:36:11.013Z,18.77
2023-01-03T07:37:05.566Z,18.73
2023-01-03T07:38:04.547Z,18.80
2023-01-03T07:39:04.562Z,18.80
2023-01-03T07:40:04.526Z,18.79
2023-01-03T07:41:04.540Z,18.79
2023-01-03T07:42:04.503Z,18.83
2023-01-03T07:43:04.493Z,18.76
2023-01-03T07:44:04.481Z,18.79
2023-01-03T07:45:04.475Z,18.80
2023-01-03T07:46:04.492Z,18.83
2023-01-03T07:47:04.448Z,18.82
2023-01-03T07:48:04.439Z,18.82
2023-01-03T07:49:09.635Z,18.82
2023-01-03T07:50:05.446Z,18.80
2023-01-03T07:51:04.418Z,18.80
2023-01-03T07:52:04.396Z,18.79
2023-01-03T07:53:04.378Z,18.77
2023-01-03T07:54:04.382Z,18.80
2023-01-03T07:55:04.361Z,18.82
2023-01-03T07:56:09.150Z,18.83
2023-01-03T07:57:05.341Z,18.82
2023-01-03T07:58:04.342Z,18.80
2023-01-03T07:59:04.317Z,18.74
2023-01-03T08:00:04.317Z,18.79
2023-01-03T08:01:04.299Z,18.79
2023-01-03T08:02:04.388Z,18.73
2023-01-03T08:03:07.730Z,18.80
2023-01-03T08:04:05.261Z,18.77
2023-01-03T08:05:04.305Z,18.84
2023-01-03T08:06:04.263Z,18.80
2023-01-03T08:07:04.241Z,18.72
2023-01-03T08:08:04.233Z,18.76
2023-01-03T08:09:06.285Z,18.79
2023-01-03T08:10:04.191Z,18.91
2023-01-03T08:11:04.209Z,18.82
2023-01-03T08:12:04.171Z,18.84
2023-01-03T08:13:04.170Z,18.82
2023-01-03T08:14:04.164Z,18.84
2023-01-03T08:15:04.146Z,18.80
2023-01-03T08:16:04.223Z,18.82
2023-01-03T08:17:04.111Z,18.80
2023-01-03T08:18:04.111Z,18.84
2023-01-03T08:19:04.105Z,18.84
2023-01-03T08:20:04.084Z,18.84
2023-01-03T08:21:04.065Z,18.87
2023-01-03T08:22:04.056Z,18.90
2023-01-03T08:23:04.073Z,18.82
2023-01-03T08:24:04.031Z,18.80
2023-01-03T08:25:04.030Z,18.91
2023-01-03T08:26:04.015Z,18.87
2023-01-03T08:27:04.017Z,18.90
2023-01-03T08:28:03.993Z,18.90
2023-01-03T08:29:03.977Z,18.76
2023-01-03T08:30:03.968Z,18.87
2023-01-03T08:31:04.174Z,18.82
2023-01-03T08:32:03.947Z,18.91
2023-01-03T08:33:03.940Z,18.84
2023-01-03T08:34:06.486Z,18.92
2023-01-03T08:35:04.913Z,18.87
2023-01-03T08:36:03.919Z,18.91
2023-01-03T08:37:03.887Z,18.83
2023-01-03T08:38:03.895Z,18.83
2023-01-03T08:39:03.884Z,18.91
2023-01-03T08:40:03.853Z,18.87
2023-01-03T08:41:03.840Z,18.97
2023-01-03T08:42:03.828Z,18.92
2023-01-03T08:43:03.829Z,18.94
2023-01-03T08:44:03.818Z,18.95
2023-01-03T08:45:03.807Z,18.97
2023-01-03T08:46:03.789Z,18.95
2023-01-03T08:47:03.915Z,18.90
2023-01-03T08:48:03.794Z,18.99
2023-01-03T08:49:03.751Z,18.90
2023-01-03T08:50:03.785Z,19.05
2023-01-03T08:51:03.728Z,19.01
2023-01-03T08:52:03.725Z,18.92
2023-01-03T08:53:03.714Z,19.02
2023-01-03T08:54:03.703Z,19.02
2023-01-03T08:55:03.701Z,18.98
2023-01-03T08:56:03.695Z,19.14
2023-01-03T08:57:03.677Z,19.02
2023-01-03T08:58:03.651Z,18.98
2023-01-03T08:59:03.643Z,19.13
2023-01-03T09:00:03.627Z,19.10
2023-01-03T09:01:03.618Z,19.02
2023-01-03T09:02:03.932Z,19.08
2023-01-03T09:03:03.779Z,19.10
2023-01-03T09:04:03.607Z,19.10
2023-01-03T09:05:03.574Z,19.13
2023-01-03T09:06:03.570Z,19.17
2023-01-03T09:07:03.555Z,19.15
2023-01-03T09:08:03.556Z,19.18
2023-01-03T09:09:03.534Z,19.20
2023-01-03T09:10:03.518Z,19.24
2023-01-03T09:11:03.521Z,19.20
2023-01-03T09:12:03.496Z,19.20
2023-01-03T09:13:03.481Z,19.11
2023-01-03T09:14:03.478Z,19.17
2023-01-03T09:15:03.459Z,19.17
2023-01-03T09:16:03.533Z,19.25
2023-01-03T09:17:03.442Z,19.25
2023-01-03T09:18:03.424Z,19.20
2023-01-03T09:19:03.414Z,19.32
2023-01-03T09:20:03.434Z,19.28
2023-01-03T09:21:03.390Z,19.24
2023-01-03T09:22:03.396Z,19.29
2023-01-03T09:23:03.370Z,19.28
2023-01-03T09:24:03.359Z,19.33
2023-01-03T09:25:03.357Z,19.38
2023-01-03T09:26:03.355Z,19.35
2023-01-03T09:27:03.343Z,19.33
2023-01-03T09:28:03.313Z,19.38
2023-01-03T09:29:03.302Z,19.40
2023-01-03T09:30:03.301Z,19.46
2023-01-03T09:31:03.345Z,19.42
2023-01-03T09:32:03.500Z,19.46
2023-01-03T09:33:03.280Z,19.47
2023-01-03T09:34:03.251Z,19.48
2023-01-03T09:35:03.240Z,19.42
2023-01-03T09:36:03.247Z,19.46
2023-01-03T09:37:03.219Z,19.54
2023-01-03T09:38:03.206Z,19.47
2023-01-03T09:39:03.189Z,19.51
2023-01-03T09:40:03.177Z,19.50
2023-01-03T09:41:03.175Z,19.53
2023-01-03T09:42:03.157Z,19.51
2023-01-03T09:43:03.167Z,19.58
2023-01-03T09:44:03.151Z,19.51
2023-01-03T09:45:03.129Z,19.51
2023-01-03T09:46:03.129Z,19.58
2023-01-03T09:47:03.181Z,19.57
2023-01-03T09:48:03.097Z,19.57
2023-01-03T09:49:03.077Z,19.65
2023-01-03T09:51:25.877Z,19.63
2023-01-03T09:52:04.053Z,19.69
2023-01-03T09:53:03.040Z,19.69
2023-01-03T09:54:03.021Z,19.63
2023-01-03T09:55:03.009Z,19.61
2023-01-03T09:56:03.010Z,19.76
2023-01-03T09:57:02.997Z,19.76
2023-01-03T09:58:02.983Z,19.80
2023-01-03T09:59:02.982Z,19.73
2023-01-03T10:00:02.979Z,19.79
2023-01-03T10:01:02.994Z,19.84
2023-01-03T10:02:03.148Z,19.84
2023-01-03T10:03:03.036Z,19.87
2023-01-03T10:04:02.916Z,19.84
2023-01-03T10:05:02.900Z,19.90
2023-01-03T10:06:02.901Z,19.94
2023-01-03T10:07:02.878Z,19.90
2023-01-03T10:08:02.886Z,19.95
2023-01-03T10:09:02.872Z,20.02
2023-01-03T10:10:02.842Z,19.98
2023-01-03T10:11:02.830Z,20.08
2023-01-03T10:12:02.818Z,20.08
2023-01-03T10:13:02.822Z,20.08
2023-01-03T10:14:02.806Z,19.98
2023-01-03T10:15:02.804Z,20.03
2023-01-03T10:16:02.826Z,20.10
2023-01-03T10:17:02.900Z,20.09
2023-01-03T10:18:02.756Z,20.13
2023-01-03T10:19:02.740Z,20.08
2023-01-03T10:20:02.735Z,20.09
2023-01-03T10:21:02.718Z,20.20
2023-01-03T10:22:02.710Z,20.16
2023-01-03T10:23:02.695Z,20.20
2023-01-03T10:24:02.693Z,20.18
2023-01-03T10:25:02.672Z,20.23
2023-01-03T10:26:02.671Z,20.27
2023-01-03T10:27:02.650Z,20.33
2023-01-03T10:28:02.641Z,20.25
2023-01-03T10:29:02.633Z,20.30
2023-01-03T10:30:02.628Z,20.33
2023-01-03T10:31:07.630Z,20.38
2023-01-03T10:32:03.739Z,20.39
2023-01-03T10:33:02.587Z,20.46
2023-01-03T10:34:02.573Z,20.39
2023-01-03T10:35:02.562Z,20.38
2023-01-03T10:36:02.558Z,20.41
2023-01-03T10:37:02.545Z,20.41
2023-01-03T10:38:02.544Z,20.41
2023-01-03T10:39:02.519Z,20.47
2023-01-03T10:40:02.510Z,20.49
2023-01-03T10:41:02.527Z,20.49
2023-01-03T10:42:02.481Z,20.49
2023-01-03T10:43:02.474Z,20.42
2023-01-03T10:44:02.487Z,20.49
2023-01-03T10:45:02.451Z,20.49
2023-01-03T10:46:02.467Z,20.54
2023-01-03T10:47:02.440Z,20.50
2023-01-03T10:48:02.416Z,20.39
2023-01-03T10:49:31.385Z,20.39
2023-01-03T10:50:03.397Z,20.39
2023-01-03T10:51:02.381Z,20.35
2023-01-03T10:52:02.367Z,20.38
2023-01-03T10:53:02.358Z,20.34
2023-01-03T10:54:02.345Z,20.35
2023-01-03T10:55:02.337Z,20.31
2023-01-03T10:56:02.333Z,20.28
2023-01-03T10:57:02.311Z,20.27
2023-01-03T10:58:02.305Z,20.31
2023-01-03T10:59:02.297Z,20.28
2023-01-03T11:00:02.277Z,20.30
2023-01-03T11:01:02.314Z,20.27
2023-01-03T11:02:02.625Z,20.34
2023-01-03T11:03:02.433Z,20.31
2023-01-03T11:04:02.317Z,20.24
2023-01-03T11:05:02.222Z,20.23
2023-01-03T11:06:02.234Z,20.30
2023-01-03T11:07:02.207Z,20.25
2023-01-03T11:08:02.201Z,20.33
2023-01-03T11:09:02.197Z,20.24
2023-01-03T11:10:02.167Z,20.25
2023-01-03T11:11:02.162Z,20.28
2023-01-03T11:12:02.144Z,20.30
2023-01-03T11:13:02.133Z,20.31
2023-01-03T11:14:02.130Z,20.41
2023-01-03T11:15:02.115Z,20.38
2023-01-03T11:16:02.098Z,20.35
2023-01-03T11:17:02.185Z,20.41
2023-01-03T11:18:02.085Z,20.43
2023-01-03T11:19:02.109Z,20.47
2023-01-03T11:20:02.057Z,20.47
2023-01-03T11:21:02.045Z,20.53
2023-01-03T11:22:02.035Z,20.53
2023-01-03T11:23:02.021Z,20.54
2023-01-03T11:24:02.016Z,20.56
2023-01-03T11:25:02.019Z,20.54
2023-01-03T11:26:01.994Z,20.56
2023-01-03T11:27:01.976Z,20.62
2023-01-03T11:28:01.980Z,20.58
2023-01-03T11:29:01.952Z,20.59
2023-01-03T11:30:01.993Z,20.58
2023-01-03T11:31:01.932Z,20.54
2023-01-03T11:32:02.013Z,20.51
2023-01-03T11:33:01.910Z,20.58
2023-01-03T11:34:01.898Z,20.66
2023-01-03T11:36:02.876Z,20.65
2023-01-03T11:37:01.866Z,20.66
2023-01-03T11:38:01.861Z,20.76
2023-01-03T11:39:01.840Z,20.69
2023-01-03T11:40:01.830Z,20.72
2023-01-03T11:41:01.817Z,20.72
2023-01-03T11:42:01.813Z,20.69
2023-01-03T11:43:01.798Z,20.69
2023-01-03T11:44:01.790Z,20.72
2023-01-03T11:45:01.776Z,20.59
2023-01-03T11:46:01.837Z,20.66
2023-01-03T11:47:01.756Z,20.54
2023-01-03T11:48:01.739Z,20.54
2023-01-03T11:49:01.743Z,20.58
2023-01-03T11:50:01.755Z,20.54
2023-01-03T11:51:01.724Z,20.61
2023-01-03T11:52:01.696Z,20.66
2023-01-03T11:53:01.753Z,20.69
2023-01-03T11:54:01.687Z,20.69
2023-01-03T11:55:01.659Z,20.74
2023-01-03T11:56:01.659Z,20.72
2023-01-03T11:57:01.640Z,20.79
2023-01-03T11:58:01.632Z,20.71
2023-01-03T11:59:01.638Z,20.65
2023-01-03T12:00:01.614Z,20.68
2023-01-03T12:01:01.609Z,20.69
2023-01-03T12:02:01.718Z,20.71
2023-01-03T12:03:01.746Z,20.66
2023-01-03T12:04:01.651Z,20.69
2023-01-03T12:05:01.560Z,20.54
2023-01-03T12:06:01.538Z,20.66
2023-01-03T12:07:21.885Z,20.61
2023-01-03T12:08:02.534Z,20.62
2023-01-03T12:09:01.507Z,20.59
2023-01-03T12:10:01.504Z,20.58
2023-01-03T12:11:01.482Z,20.54
2023-01-03T12:12:01.470Z,20.59
2023-01-03T12:13:01.461Z,20.59
2023-01-03T12:14:01.454Z,20.59
2023-01-03T12:15:01.443Z,20.61
2023-01-03T12:16:01.458Z,20.61
2023-01-03T12:17:01.420Z,20.61
2023-01-03T12:18:01.433Z,20.50
2023-01-03T12:19:04.407Z,20.51
2023-01-03T12:20:02.402Z,20.53
2023-01-03T12:21:01.370Z,20.54
2023-01-03T12:22:01.359Z,20.53
2023-01-03T12:23:01.377Z,20.56
2023-01-03T12:24:01.347Z,20.51
2023-01-03T12:25:05.505Z,20.47
2023-01-03T12:26:01.320Z,20.58
2023-01-03T12:27:01.303Z,20.53
2023-01-03T12:28:01.291Z,20.50
2023-01-03T12:29:01.288Z,20.47
2023-01-03T12:30:01.281Z,20.49
2023-01-03T12:31:01.327Z,20.51
2023-01-03T12:32:01.318Z,20.47
2023-01-03T12:33:01.237Z,20.43
2023-01-03T12:34:01.222Z,20.50
2023-01-03T12:35:01.222Z,20.42
2023-01-03T12:36:01.215Z,20.54
2023-01-03T12:37:01.197Z,20.58
2023-01-03T12:38:02.683Z,20.59
2023-01-03T12:39:01.209Z,20.56
2023-01-03T12:40:01.176Z,20.59
2023-01-03T12:41:01.147Z,20.56
2023-01-03T12:42:01.143Z,20.54
2023-01-03T12:43:01.147Z,20.54
2023-01-03T12:44:01.132Z,20.51
2023-01-03T12:45:01.116Z,20.58
2023-01-03T12:46:04.561Z,20.53
2023-01-03T12:47:02.114Z,20.51
2023-01-03T12:48:01.070Z,20.50
2023-01-03T12:49:01.554Z,20.58
2023-01-03T12:50:01.064Z,20.56
2023-01-03T12:51:01.044Z,20.56
2023-01-03T12:52:01.026Z,20.72
2023-01-03T12:53:01.015Z,20.74
2023-01-03T12:54:01.029Z,20.79